Time;durP1;ratioP1;P1;durP2;ratioP2;P2;SDS_P1;SDS_P2;PMS_P1;PMS_P2;Temp;Humidity;BMP_temperature;BMP_pressure;BME280_temperature;BME280_humidity;BME280_pressure;Samples;Min_cycle;Max_cycle;Signal;HPM_P1;HPM_P2
2022/05/30 00:01:10;;;;;;;3.80;1.57;;;11.10;99.90;;;;;;4160541;28;20207;-79
2022/05/30 00:03:12;;;;;;;3.77;1.50;;;11.10;99.90;;;;;;4164789;28;20230;-78
2022/05/30 00:05:17;;;;;;;2.33;1.50;;;11.10;99.90;;;;;;4160164;28;20207;-78
2022/05/30 00:07:18;;;;;;;2.53;1.90;;;11.10;99.90;;;;;;4159602;28;20211;-79
2022/05/30 00:09:20;;;;;;;2.70;1.60;;;11.10;99.90;;;;;;4145206;28;20594;-79
2022/05/30 00:11:22;;;;;;;3.47;1.87;;;11.00;99.90;;;;;;4138935;28;20211;-77
2022/05/30 00:13:24;;;;;;;4.10;2.00;;;11.00;99.90;;;;;;4160987;28;20261;-77
2022/05/30 00:15:26;;;;;;;2.03;1.70;;;11.10;99.90;;;;;;4171155;23;20239;-82
2022/05/30 00:17:29;;;;;;;6.30;2.30;;;11.00;99.90;;;;;;4132017;28;20682;-82
2022/05/30 00:19:31;;;;;;;3.03;1.90;;;11.00;99.90;;;;;;4127897;28;20758;-81
2022/05/30 00:21:34;;;;;;;2.23;1.47;;;10.90;99.90;;;;;;4148448;28;20566;-82
2022/05/30 00:23:36;;;;;;;2.73;1.90;;;10.90;99.90;;;;;;4149885;28;20814;-82
2022/05/30 00:25:40;;;;;;;6.40;2.17;;;10.90;99.90;;;;;;4144794;28;20223;-81
2022/05/30 00:27:44;;;;;;;5.10;2.20;;;10.90;99.90;;;;;;4148270;28;20204;-81
2022/05/30 00:29:46;;;;;;;2.80;2.00;;;11.00;99.90;;;;;;4148066;28;20204;-81
2022/05/30 00:31:48;;;;;;;2.70;1.90;;;10.90;99.90;;;;;;4142585;28;20652;-82
2022/05/30 00:33:50;;;;;;;2.93;2.10;;;10.80;99.90;;;;;;4148226;28;20238;-81
2022/05/30 00:35:52;;;;;;;2.53;1.80;;;10.80;99.90;;;;;;4148534;28;20695;-82
2022/05/30 00:37:56;;;;;;;3.60;1.83;;;10.70;99.90;;;;;;4148823;28;20216;-81
2022/05/30 00:39:58;;;;;;;2.13;1.60;;;10.80;99.90;;;;;;4148591;28;20497;-82
2022/05/30 00:42:08;;;;;;;2.50;1.37;;;10.80;99.90;;;;;;4148191;28;20560;-80
2022/05/30 00:44:10;;;;;;;2.03;1.50;;;10.70;99.90;;;;;;4147509;28;20212;-80
2022/05/30 00:46:15;;;;;;;3.30;1.33;;;10.70;99.90;;;;;;4146864;28;20219;-82
2022/05/30 00:48:20;;;;;;;3.83;1.57;;;10.70;99.90;;;;;;4144136;28;20216;-82
2022/05/30 00:50:22;;;;;;;3.33;1.33;;;10.70;99.90;;;;;;4147409;28;20215;-81
2022/05/30 00:52:27;;;;;;;2.80;1.47;;;10.70;99.90;;;;;;4147245;28;20673;-81
2022/05/30 00:54:36;;;;;;;3.70;1.60;;;10.60;99.90;;;;;;4148205;28;20805;-81
2022/05/30 00:56:42;;;;;;;2.87;1.63;;;10.60;99.90;;;;;;4144273;28;20208;-82
2022/05/30 00:58:47;;;;;;;2.37;1.50;;;10.60;99.90;;;;;;4149961;28;20211;-82
2022/05/30 01:00:51;;;;;;;2.97;1.70;;;10.60;99.90;;;;;;4149137;28;20216;-82
2022/05/30 01:07:33;;;;;;;2.80;1.67;;;10.50;99.90;;;;;;4146063;28;20294;-81
2022/05/30 01:09:42;;;;;;;4.33;1.90;;;10.50;99.90;;;;;;4149182;28;20576;-82
2022/05/30 01:11:56;;;;;;;3.07;1.57;;;10.50;99.90;;;;;;4145754;28;20731;-81
2022/05/30 01:14:00;;;;;;;3.30;1.90;;;10.50;99.90;;;;;;4147836;28;20665;-82
2022/05/30 01:16:03;;;;;;;2.53;1.80;;;10.50;99.90;;;;;;4143560;28;20658;-82
2022/05/30 01:18:09;;;;;;;4.23;2.00;;;10.50;99.90;;;;;;4150178;28;20239;-81
2022/05/30 01:20:21;;;;;;;3.20;1.93;;;10.50;99.90;;;;;;4148288;28;20233;-81
2022/05/30 01:22:44;;;;;;;3.87;2.13;;;10.50;99.90;;;;;;4144321;28;20220;-81
2022/05/30 01:24:55;;;;;;;5.30;2.10;;;10.40;99.90;;;;;;4147722;28;20236;-82
2022/05/30 01:27:11;;;;;;;3.30;2.00;;;10.40;99.90;;;;;;4145636;28;20223;-82
2022/05/30 01:29:21;;;;;;;3.07;2.30;;;10.40;99.90;;;;;;4145557;28;20216;-82
2022/05/30 01:31:27;;;;;;;4.13;2.27;;;10.40;99.90;;;;;;4148542;28;20262;-82
2022/05/30 01:33:29;;;;;;;4.47;2.23;;;10.30;99.90;;;;;;4144387;28;20476;-82
2022/05/30 01:35:31;;;;;;;4.60;2.00;;;10.20;99.90;;;;;;4147833;28;20236;-81
2022/05/30 01:37:36;;;;;;;4.97;2.03;;;10.20;99.90;;;;;;4147978;28;20211;-81
2022/05/30 01:39:40;;;;;;;6.00;2.17;;;10.10;99.90;;;;;;4139339;28;20256;-81
2022/05/30 01:41:42;;;;;;;4.30;2.17;;;10.20;99.90;;;;;;4150646;28;20449;-80
2022/05/30 01:43:44;;;;;;;3.17;2.10;;;10.20;99.90;;;;;;4126089;28;20213;-79
2022/05/30 01:45:48;;;;;;;2.23;1.73;;;10.10;99.90;;;;;;4132221;28;20324;-79
2022/05/30 01:47:50;;;;;;;4.00;2.00;;;10.10;99.90;;;;;;4150460;28;20246;-79
2022/05/30 01:49:52;;;;;;;4.73;1.97;;;10.10;99.90;;;;;;4148145;28;20231;-79
2022/05/30 01:51:55;;;;;;;3.43;2.10;;;10.10;99.90;;;;;;4148138;28;20235;-79
2022/05/30 01:53:56;;;;;;;3.27;1.90;;;10.10;99.90;;;;;;4145150;28;20259;-79
2022/05/30 01:55:58;;;;;;;4.80;2.20;;;10.10;99.90;;;;;;4164550;28;20238;-79
2022/05/30 01:58:00;;;;;;;4.63;2.10;;;10.10;99.90;;;;;;4148478;28;20216;-79
2022/05/30 02:00:02;;;;;;;5.13;2.40;;;10.10;99.90;;;;;;4163486;28;20696;-80
2022/05/30 02:02:09;;;;;;;4.37;2.20;;;10.10;99.90;;;;;;4144972;28;20592;-79
2022/05/30 02:04:11;;;;;;;3.70;2.20;;;10.00;99.90;;;;;;4142425;28;20215;-80
2022/05/30 02:06:13;;;;;;;4.30;1.93;;;10.00;99.90;;;;;;4163330;28;20575;-80
2022/05/30 02:08:18;;;;;;;4.67;2.27;;;10.10;99.90;;;;;;4162968;28;20211;-80
2022/05/30 02:10:20;;;;;;;4.63;2.20;;;10.00;99.90;;;;;;4146442;28;20291;-79
2022/05/30 02:12:22;;;;;;;5.10;2.73;;;10.00;99.90;;;;;;4145844;28;20228;-80
2022/05/30 02:14:24;;;;;;;3.93;2.20;;;10.00;99.90;;;;;;4161730;28;20273;-80
2022/05/30 02:18:47;;;;;;;4.50;2.30;;;10.00;99.90;;;;;;4146148;28;20277;-82
2022/05/30 02:20:49;;;;;;;9.83;3.03;;;10.00;99.90;;;;;;4146664;28;20220;-80
2022/05/30 02:22:51;;;;;;;6.70;2.67;;;10.10;99.90;;;;;;4146476;28;20262;-80
2022/05/30 02:24:56;;;;;;;5.73;2.53;;;10.10;99.90;;;;;;4164919;28;20238;-80
2022/05/30 02:27:00;;;;;;;9.13;2.60;;;10.10;99.90;;;;;;4142840;28;20212;-79
2022/05/30 02:29:03;;;;;;;5.07;2.57;;;10.10;99.90;;;;;;4163568;28;20233;-79
2022/05/30 02:31:05;;;;;;;5.27;2.60;;;10.10;99.90;;;;;;4146983;28;20240;-80
2022/05/30 02:37:48;;;;;;;6.70;2.70;;;10.20;99.90;;;;;;4146690;28;20262;-80
2022/05/30 02:39:49;;;;;;;5.67;2.50;;;10.20;99.90;;;;;;4161891;28;20283;-80
2022/05/30 02:41:52;;;;;;;8.07;3.00;;;10.20;99.90;;;;;;4147070;28;20290;-80
2022/05/30 02:43:57;;;;;;;4.37;3.07;;;10.20;99.90;;;;;;4164165;28;20233;-80
2022/05/30 02:45:59;;;;;;;6.23;3.17;;;10.20;99.90;;;;;;4145395;28;20745;-80
2022/05/30 02:48:03;;;;;;;5.90;2.97;;;10.20;99.90;;;;;;4164686;28;20203;-79
2022/05/30 02:50:05;;;;;;;7.90;3.37;;;10.20;99.90;;;;;;4162952;28;20199;-79
2022/05/30 02:52:09;;;;;;;6.57;2.80;;;10.20;99.90;;;;;;4146544;28;20243;-80
2022/05/30 02:54:11;;;;;;;7.70;3.17;;;10.20;99.90;;;;;;4160671;28;20218;-81
2022/05/30 02:56:14;;;;;;;5.40;2.90;;;10.30;99.90;;;;;;4150289;28;20215;-79
2022/05/30 02:58:16;;;;;;;8.03;3.07;;;10.30;99.90;;;;;;4159577;28;20272;-80
2022/05/30 03:00:18;;;;;;;8.17;2.87;;;10.30;99.90;;;;;;4143506;28;20314;-80
2022/05/30 03:02:20;;;;;;;7.20;3.17;;;10.30;99.90;;;;;;4147490;28;20218;-80
2022/05/30 03:04:22;;;;;;;5.57;3.20;;;10.30;99.90;;;;;;4147379;28;20291;-80
2022/05/30 03:06:25;;;;;;;7.90;3.33;;;10.30;99.90;;;;;;4167234;28;20213;-80
2022/05/30 03:08:28;;;;;;;7.33;3.60;;;10.30;99.90;;;;;;4145389;28;20252;-81
2022/05/30 03:10:30;;;;;;;6.00;3.20;;;10.30;99.90;;;;;;4152951;28;20199;-80
2022/05/30 03:12:32;;;;;;;7.43;3.63;;;10.30;99.90;;;;;;4152317;28;20212;-80
2022/05/30 03:14:33;;;;;;;8.47;4.63;;;10.30;99.90;;;;;;4146854;28;20267;-79
2022/05/30 03:16:35;;;;;;;8.77;4.17;;;10.30;99.90;;;;;;4146729;28;20215;-80
2022/05/30 03:18:37;;;;;;;7.40;3.67;;;10.30;99.90;;;;;;4164745;28;20249;-80
2022/05/30 03:20:39;;;;;;;9.97;3.70;;;10.30;99.90;;;;;;4149224;28;20293;-80
2022/05/30 03:22:41;;;;;;;6.50;3.90;;;10.30;99.90;;;;;;4149611;28;20211;-80
2022/05/30 03:24:44;;;;;;;9.23;4.00;;;10.30;99.90;;;;;;4149302;28;20224;-80
2022/05/30 03:26:46;;;;;;;7.07;3.87;;;10.30;99.90;;;;;;4166890;28;20302;-79
2022/05/30 03:28:48;;;;;;;11.43;3.80;;;10.30;99.90;;;;;;4166852;28;20224;-80
2022/05/30 03:30:50;;;;;;;9.93;4.43;;;10.40;99.90;;;;;;4164640;28;20200;-80
2022/05/30 03:32:52;;;;;;;10.20;4.60;;;10.40;99.90;;;;;;4148892;28;20209;-79
2022/05/30 03:34:54;;;;;;;9.53;4.07;;;10.30;99.90;;;;;;4149034;28;20232;-80
2022/05/30 03:36:56;;;;;;;7.77;4.63;;;10.40;99.90;;;;;;4146804;28;20770;-80
2022/05/30 03:38:58;;;;;;;12.83;4.53;;;10.40;99.90;;;;;;4151383;28;20211;-80
2022/05/30 03:41:01;;;;;;;7.57;4.47;;;10.40;99.90;;;;;;4148112;28;20231;-80
2022/05/30 03:43:03;;;;;;;11.93;5.50;;;10.40;99.90;;;;;;4149064;28;20216;-80
2022/05/30 03:45:07;;;;;;;10.23;5.37;;;10.40;99.90;;;;;;4151657;28;20239;-80
2022/05/30 03:47:09;;;;;;;10.43;5.77;;;10.40;99.90;;;;;;4146555;28;20225;-79
2022/05/30 03:49:11;;;;;;;9.40;5.17;;;10.40;99.90;;;;;;4147655;28;20216;-79
2022/05/30 03:51:14;;;;;;;9.73;5.10;;;10.40;99.90;;;;;;4166382;28;20207;-80
2022/05/30 03:53:18;;;;;;;11.00;5.57;;;10.50;99.90;;;;;;4147347;28;20234;-80
2022/05/30 03:55:23;;;;;;;10.00;5.23;;;10.60;99.90;;;;;;4142091;28;20235;-79
2022/05/30 03:57:26;;;;;;;10.53;6.13;;;10.50;99.90;;;;;;4148299;28;20696;-80
2022/05/30 03:59:28;;;;;;;9.67;5.90;;;10.60;99.90;;;;;;4150918;28;20696;-80
2022/05/30 04:01:29;;;;;;;12.10;5.83;;;10.60;99.90;;;;;;4166077;28;20227;-79
2022/05/30 04:03:31;;;;;;;11.13;6.30;;;10.60;99.90;;;;;;4146733;28;20553;-80
2022/05/30 04:05:33;;;;;;;10.00;5.10;;;10.60;99.90;;;;;;4167714;28;20683;-83
2022/05/30 04:07:35;;;;;;;7.90;5.13;;;10.60;99.90;;;;;;4151188;28;20222;-83
2022/05/30 04:09:37;;;;;;;12.17;6.57;;;10.70;99.90;;;;;;4165496;28;20231;-80
2022/05/30 04:11:39;;;;;;;14.90;6.63;;;10.70;99.90;;;;;;4166807;28;20575;-80
2022/05/30 04:13:42;;;;;;;14.60;6.97;;;10.70;99.90;;;;;;4164417;28;20235;-80
2022/05/30 04:15:44;;;;;;;10.47;5.87;;;10.70;99.90;;;;;;4161736;28;20259;-79
2022/05/30 04:17:46;;;;;;;18.30;6.80;;;10.70;99.90;;;;;;4165817;28;20203;-80
2022/05/30 04:19:47;;;;;;;14.67;6.80;;;10.70;99.90;;;;;;4149164;28;20297;-80
2022/05/30 04:21:49;;;;;;;10.63;6.40;;;10.70;99.90;;;;;;4166620;28;20901;-80
2022/05/30 04:23:54;;;;;;;10.30;5.73;;;10.70;99.90;;;;;;4146686;28;20584;-80
2022/05/30 04:25:56;;;;;;;11.17;6.13;;;10.70;99.90;;;;;;4166481;28;20557;-80
2022/05/30 04:27:58;;;;;;;12.87;6.10;;;10.90;99.90;;;;;;4165818;28;20226;-80
2022/05/30 04:30:01;;;;;;;9.53;5.57;;;10.80;99.90;;;;;;4153559;28;20239;-80
2022/05/30 04:32:04;;;;;;;12.63;6.43;;;10.70;99.90;;;;;;4154675;28;20226;-80
2022/05/30 04:34:08;;;;;;;10.80;6.10;;;10.70;99.90;;;;;;4175572;28;20715;-80
2022/05/30 04:36:11;;;;;;;10.80;6.53;;;10.70;99.90;;;;;;4175783;28;20235;-80
2022/05/30 04:38:13;;;;;;;11.43;6.23;;;10.70;99.90;;;;;;4154470;28;20307;-79
2022/05/30 04:40:17;;;;;;;11.20;6.60;;;10.70;99.90;;;;;;4172339;28;20207;-82
2022/05/30 04:42:19;;;;;;;10.60;5.97;;;10.70;99.90;;;;;;4176726;28;20213;-82
2022/05/30 04:44:21;;;;;;;10.63;5.77;;;10.80;99.90;;;;;;4171137;28;20695;-82
2022/05/30 04:46:24;;;;;;;9.63;5.77;;;10.80;99.90;;;;;;4152853;28;20221;-81
2022/05/30 04:48:26;;;;;;;10.37;5.60;;;10.80;99.90;;;;;;4142990;28;20216;-81
2022/05/30 04:50:28;;;;;;;12.10;5.80;;;10.90;99.90;;;;;;4141586;28;20239;-80
2022/05/30 04:52:30;;;;;;;9.63;6.17;;;10.90;99.90;;;;;;4145467;28;20222;-84
2022/05/30 04:54:33;;;;;;;11.93;6.70;;;10.90;99.90;;;;;;4158869;28;20226;-84
2022/05/30 04:56:34;;;;;;;11.13;6.17;;;10.90;99.90;;;;;;4149143;28;20212;-84
2022/05/30 04:58:36;;;;;;;12.33;6.20;;;10.90;99.90;;;;;;4140225;28;20210;-83
2022/05/30 05:00:40;;;;;;;9.00;5.73;;;10.90;99.90;;;;;;4158066;28;20258;-83
2022/05/30 05:02:43;;;;;;;10.27;5.73;;;11.00;99.90;;;;;;4165387;28;20263;-84
2022/05/30 05:04:45;;;;;;;10.57;5.90;;;11.00;99.90;;;;;;4160595;28;20224;-82
2022/05/30 05:06:48;;;;;;;12.30;5.73;;;11.00;99.90;;;;;;4149100;28;20208;-82
2022/05/30 05:08:55;;;;;;;8.27;5.37;;;11.00;99.90;;;;;;4160462;28;20209;-82
2022/05/30 05:11:04;;;;;;;9.03;4.97;;;11.00;99.90;;;;;;4160809;28;20773;-81
2022/05/30 05:13:06;;;;;;;8.80;4.63;;;11.00;99.90;;;;;;4147170;28;20398;-83
2022/05/30 05:15:08;;;;;;;7.60;4.70;;;11.00;99.90;;;;;;4145841;28;20295;-83
2022/05/30 05:17:11;;;;;;;14.00;5.10;;;11.00;99.90;;;;;;4143745;28;20221;-83
2022/05/30 05:19:14;;;;;;;9.87;4.47;;;11.10;99.90;;;;;;4163350;28;20314;-83
2022/05/30 05:21:18;;;;;;;10.17;5.20;;;11.10;99.90;;;;;;4164123;28;20224;-82
2022/05/30 05:23:20;;;;;;;9.33;4.67;;;11.10;99.90;;;;;;4165490;28;20204;-83
2022/05/30 05:25:22;;;;;;;9.40;4.40;;;11.10;99.90;;;;;;4163209;28;20256;-82
2022/05/30 05:27:24;;;;;;;15.93;7.00;;;11.30;99.90;;;;;;4147778;28;20271;-81
2022/05/30 05:29:25;;;;;;;11.30;5.03;;;11.10;99.90;;;;;;4164508;28;20274;-82
2022/05/30 05:31:31;;;;;;;10.10;4.53;;;11.20;99.90;;;;;;4163723;28;20300;-81
2022/05/30 05:33:33;;;;;;;8.23;4.10;;;11.20;99.90;;;;;;4163564;28;20212;-81
2022/05/30 05:35:40;;;;;;;12.80;4.57;;;11.20;99.90;;;;;;4161674;28;20236;-82
2022/05/30 05:37:42;;;;;;;12.20;4.53;;;11.00;99.90;;;;;;4162596;28;20228;-82
2022/05/30 05:39:44;;;;;;;11.20;4.13;;;11.20;99.90;;;;;;4163281;28;20208;-81
2022/05/30 05:41:47;;;;;;;9.87;4.17;;;11.20;99.90;;;;;;4161532;28;20225;-82
2022/05/30 05:43:49;;;;;;;14.37;4.43;;;11.30;99.90;;;;;;4160010;28;20209;-82
2022/05/30 05:45:51;;;;;;;11.43;4.53;;;11.10;99.90;;;;;;4146568;28;20577;-84
2022/05/30 05:47:52;;;;;;;17.10;4.17;;;11.10;99.90;;;;;;4159895;28;20235;-83
2022/05/30 05:49:54;;;;;;;10.50;4.03;;;11.10;99.90;;;;;;4148051;28;20248;-81
2022/05/30 05:51:59;;;;;;;13.03;4.23;;;11.10;99.90;;;;;;4144903;28;20220;-81
2022/05/30 05:54:01;;;;;;;12.03;4.80;;;11.00;99.90;;;;;;4159308;28;20687;-83
2022/05/30 05:56:10;;;;;;;12.20;4.63;;;11.00;99.90;;;;;;4154001;28;20211;-83
2022/05/30 05:58:12;;;;;;;13.57;4.63;;;11.00;99.90;;;;;;4144824;28;20215;-83
2022/05/30 06:00:15;;;;;;;9.63;4.63;;;11.00;99.90;;;;;;4140387;28;20295;-83
2022/05/30 06:02:17;;;;;;;10.90;4.73;;;11.00;99.90;;;;;;4157093;28;20300;-84
2022/05/30 06:04:19;;;;;;;12.30;4.87;;;11.00;99.90;;;;;;4142416;28;20314;-83
2022/05/30 06:06:21;;;;;;;14.47;5.20;;;11.00;99.90;;;;;;4154858;28;20291;-82
2022/05/30 06:08:24;;;;;;;12.57;4.90;;;11.00;99.90;;;;;;4156969;28;20227;-82
2022/05/30 06:10:26;;;;;;;13.70;5.10;;;11.00;99.90;;;;;;4139114;28;20220;-83
2022/05/30 06:12:28;;;;;;;12.60;5.33;;;11.00;99.90;;;;;;4135285;28;20220;-83
2022/05/30 06:14:30;;;;;;;14.87;6.07;;;11.20;99.90;;;;;;4177021;23;20255;-80
2022/05/30 06:16:33;;;;;;;16.33;5.50;;;11.10;99.90;;;;;;4155957;28;20306;-79
2022/05/30 06:18:35;;;;;;;12.17;5.33;;;11.10;99.90;;;;;;4143700;28;20204;-80
2022/05/30 06:20:37;;;;;;;9.03;4.97;;;11.20;99.90;;;;;;4145153;28;20634;-80
2022/05/30 06:22:42;;;;;;;11.20;5.03;;;11.20;99.90;;;;;;4148964;28;20208;-80
2022/05/30 06:24:48;;;;;;;14.30;6.10;;;11.20;99.90;;;;;;4149882;28;20228;-80
2022/05/30 06:26:50;;;;;;;12.27;5.43;;;11.20;99.90;;;;;;4135207;28;20215;-79
2022/05/30 06:28:54;;;;;;;12.40;5.70;;;11.30;99.90;;;;;;4159393;28;20285;-80
2022/05/30 06:30:56;;;;;;;15.57;5.50;;;11.30;99.90;;;;;;4141779;28;20197;-80
2022/05/30 06:32:57;;;;;;;21.03;6.37;;;11.30;99.90;;;;;;4158307;28;20210;-80
2022/05/30 06:34:59;;;;;;;12.07;5.40;;;11.40;99.90;;;;;;4158239;28;20619;-80
2022/05/30 06:37:01;;;;;;;17.50;5.50;;;11.50;99.90;;;;;;4137124;28;20208;-80
2022/05/30 06:39:04;;;;;;;14.30;5.10;;;11.50;99.90;;;;;;4159524;28;20213;-80
2022/05/30 06:41:15;;;;;;;11.73;4.80;;;11.50;99.90;;;;;;4158168;28;20231;-80
2022/05/30 06:43:17;;;;;;;11.30;4.57;;;11.50;99.90;;;;;;4141454;28;20236;-79
2022/05/30 06:45:19;;;;;;;11.17;4.70;;;11.50;99.90;;;;;;4145278;28;20232;-79
2022/05/30 06:47:20;;;;;;;12.23;4.77;;;11.50;99.90;;;;;;4155958;28;20204;-80
2022/05/30 06:49:22;;;;;;;10.07;3.83;;;11.60;99.90;;;;;;4144420;28;20222;-80
2022/05/30 06:51:26;;;;;;;11.47;4.70;;;11.60;99.90;;;;;;4160711;28;20343;-79
2022/05/30 06:53:28;;;;;;;9.37;3.80;;;11.60;99.90;;;;;;4158080;28;20220;-79
2022/05/30 06:55:31;;;;;;;15.43;4.70;;;11.60;99.90;;;;;;4138485;28;20265;-79
2022/05/30 06:59:54;;;;;;;9.57;4.30;;;11.60;99.90;;;;;;4158609;28;20260;-79
2022/05/30 07:01:56;;;;;;;15.63;4.73;;;11.60;99.90;;;;;;4159023;28;20339;-79
2022/05/30 07:03:58;;;;;;;9.83;4.40;;;11.60;99.90;;;;;;4135187;28;20759;-80
2022/05/30 07:06:01;;;;;;;10.10;4.27;;;11.60;99.90;;;;;;4158571;28;20233;-80
2022/05/30 07:08:03;;;;;;;9.50;4.50;;;11.50;99.90;;;;;;4136377;28;20634;-80
2022/05/30 07:10:11;;;;;;;11.60;4.73;;;11.50;99.90;;;;;;4161488;28;20255;-79
2022/05/30 07:12:13;;;;;;;13.10;4.30;;;11.60;99.90;;;;;;4159286;28;20441;-79
2022/05/30 07:14:16;;;;;;;12.80;3.80;;;11.60;99.90;;;;;;4158471;28;20208;-79
2022/05/30 07:16:19;;;;;;;12.63;3.80;;;11.60;99.90;;;;;;4159738;28;20682;-79
2022/05/30 07:18:21;;;;;;;10.27;3.57;;;11.60;99.90;;;;;;4156869;28;20203;-79
2022/05/30 07:20:23;;;;;;;11.77;3.60;;;11.60;99.90;;;;;;4158997;28;20629;-79
2022/05/30 07:22:26;;;;;;;8.27;3.33;;;11.60;99.90;;;;;;4158574;28;20236;-79
2022/05/30 07:24:27;;;;;;;11.67;3.30;;;11.60;99.90;;;;;;4155291;28;20213;-79
2022/05/30 07:26:29;;;;;;;11.00;2.73;;;11.60;99.90;;;;;;4144224;28;20224;-79
2022/05/30 07:28:31;;;;;;;7.03;3.10;;;11.60;99.90;;;;;;4157347;28;20571;-79
2022/05/30 07:30:36;;;;;;;8.10;2.80;;;11.70;99.90;;;;;;4158566;28;20773;-79
2022/05/30 07:32:38;;;;;;;11.10;3.23;;;11.70;99.90;;;;;;4140759;28;20741;-79
2022/05/30 07:34:40;;;;;;;16.30;4.33;;;11.80;99.90;;;;;;4157742;28;20235;-79
2022/05/30 07:36:41;;;;;;;19.10;5.43;;;11.80;99.90;;;;;;4158189;28;20596;-79
2022/05/30 07:38:44;;;;;;;26.90;7.27;;;11.90;99.90;;;;;;4160737;28;20715;-79
2022/05/30 07:40:46;;;;;;;12.93;5.40;;;11.90;99.90;;;;;;4157931;28;20612;-79
2022/05/30 07:42:48;;;;;;;15.97;3.63;;;11.90;99.90;;;;;;4162076;28;20225;-79
2022/05/30 07:44:50;;;;;;;9.13;2.67;;;11.80;99.90;;;;;;4162553;28;20265;-79
2022/05/30 07:46:53;;;;;;;6.27;2.40;;;11.90;99.90;;;;;;4160580;28;20212;-80
2022/05/30 07:48:54;;;;;;;9.07;2.30;;;11.90;99.90;;;;;;4145416;28;20214;-80
2022/05/30 07:50:57;;;;;;;8.97;2.03;;;12.00;99.90;;;;;;4142522;28;20221;-79
2022/05/30 07:52:59;;;;;;;7.47;2.03;;;12.00;99.90;;;;;;4142407;28;20214;-79
2022/05/30 07:55:02;;;;;;;4.30;2.13;;;12.00;99.90;;;;;;4161981;28;20568;-79
2022/05/30 07:57:05;;;;;;;7.23;2.10;;;12.10;99.90;;;;;;4137255;28;20297;-79
2022/05/30 07:59:07;;;;;;;7.57;2.00;;;12.10;99.90;;;;;;4157819;28;20511;-79
2022/05/30 08:01:13;;;;;;;7.03;2.17;;;12.10;99.90;;;;;;4144626;28;20213;-79
2022/05/30 08:03:17;;;;;;;11.10;2.47;;;12.10;99.90;;;;;;4144287;28;20214;-79
2022/05/30 08:05:22;;;;;;;11.57;2.30;;;12.10;99.90;;;;;;4174829;28;20279;-79
2022/05/30 08:07:24;;;;;;;8.43;1.93;;;12.10;99.90;;;;;;4161032;28;20205;-79
2022/05/30 08:09:26;;;;;;;12.37;2.80;;;12.10;99.90;;;;;;4142814;28;20214;-80
2022/05/30 08:11:28;;;;;;;14.60;3.90;;;12.20;99.90;;;;;;4162684;28;20594;-79
2022/05/30 08:13:29;;;;;;;12.37;2.97;;;12.20;99.90;;;;;;4162780;28;20702;-80
2022/05/30 08:15:32;;;;;;;16.60;2.77;;;12.20;99.90;;;;;;4167040;28;20756;-79
2022/05/30 08:17:34;;;;;;;8.53;1.97;;;12.30;99.90;;;;;;4144570;28;20215;-79
2022/05/30 08:19:40;;;;;;;9.87;2.47;;;12.40;99.90;;;;;;4163412;28;20662;-80
2022/05/30 08:21:42;;;;;;;10.40;1.90;;;12.40;99.90;;;;;;4166612;28;20686;-80
2022/05/30 08:23:44;;;;;;;6.70;2.13;;;12.50;99.90;;;;;;4162758;28;20650;-79
2022/05/30 08:25:47;;;;;;;11.03;2.53;;;12.50;99.90;;;;;;4163298;28;20602;-80
2022/05/30 08:27:49;;;;;;;10.77;2.70;;;12.70;99.90;;;;;;4163232;28;20211;-80
2022/05/30 08:29:51;;;;;;;9.00;2.30;;;12.70;99.90;;;;;;4160883;28;20218;-80
2022/05/30 08:31:53;;;;;;;9.57;2.40;;;12.80;99.90;;;;;;4136144;28;20284;-80
2022/05/30 08:33:57;;;;;;;7.03;2.33;;;13.10;99.90;;;;;;4161204;28;20213;-80
2022/05/30 08:36:02;;;;;;;8.67;1.97;;;12.90;99.90;;;;;;4160817;28;20226;-80
2022/05/30 08:38:04;;;;;;;9.67;1.80;;;13.00;99.90;;;;;;4160320;28;20202;-80
2022/05/30 08:42:33;;;;;;;8.83;2.03;;;13.10;99.90;;;;;;4159929;28;20227;-80
2022/05/30 08:44:35;;;;;;;13.70;2.50;;;13.30;99.90;;;;;;4161152;28;20214;-80
2022/05/30 08:46:44;;;;;;;7.97;2.60;;;13.30;99.90;;;;;;4158956;28;20210;-79
2022/05/30 08:48:54;;;;;;;11.57;2.83;;;13.30;99.90;;;;;;4159595;28;20238;-82
2022/05/30 08:51:09;;;;;;;7.23;2.57;;;13.40;99.90;;;;;;4159198;28;20207;-79
2022/05/30 08:53:42;;;;;;;7.53;2.20;;;13.50;99.90;;;;;;4160193;28;20203;-79
2022/05/30 08:55:48;;;;;;;5.13;2.07;;;13.60;99.90;;;;;;4127417;28;20294;-79
2022/05/30 08:57:58;;;;;;;8.37;2.87;;;13.70;99.90;;;;;;4160463;28;20618;-79
2022/05/30 09:00:09;;;;;;;6.03;2.23;;;13.80;99.90;;;;;;4140374;28;20656;-78
2022/05/30 09:02:16;;;;;;;8.03;2.30;;;13.90;99.90;;;;;;4159926;28;20241;-78
2022/05/30 09:04:25;;;;;;;5.77;1.80;;;13.90;99.90;;;;;;4159486;28;20210;-78
2022/05/30 09:06:30;;;;;;;6.43;2.33;;;14.00;99.90;;;;;;4159794;28;20211;-78
2022/05/30 09:08:38;;;;;;;6.77;2.27;;;14.00;99.90;;;;;;4159467;28;20216;-78
2022/05/30 09:10:44;;;;;;;7.13;2.20;;;14.00;99.90;;;;;;4162667;28;20366;-79
2022/05/30 09:12:49;;;;;;;4.30;2.23;;;14.00;99.90;;;;;;4144010;28;20203;-79
2022/05/30 09:14:57;;;;;;;7.73;2.70;;;14.00;99.90;;;;;;4160030;28;20235;-78
2022/05/30 09:17:03;;;;;;;6.30;2.27;;;14.10;99.90;;;;;;4156972;28;20618;-79
2022/05/30 09:19:09;;;;;;;6.83;3.23;;;14.10;99.90;;;;;;4139212;28;20263;-78
2022/05/30 09:21:11;;;;;;;6.23;2.53;;;14.20;99.90;;;;;;4156224;28;20396;-79
2022/05/30 09:23:18;;;;;;;6.80;2.37;;;14.20;99.90;;;;;;4165363;28;20223;-79
2022/05/30 09:27:43;;;;;;;8.13;2.60;;;14.30;99.90;;;;;;4159989;28;20245;-78
2022/05/30 09:29:54;;;;;;;8.17;2.83;;;14.30;99.90;;;;;;4159865;28;20212;-78
2022/05/30 09:32:08;;;;;;;11.37;3.47;;;14.30;99.90;;;;;;4158306;28;20745;-78
2022/05/30 09:34:29;;;;;;;5.50;2.10;;;14.30;99.90;;;;;;4159459;28;20214;-78
2022/05/30 09:36:34;;;;;;;12.33;2.50;;;14.40;99.90;;;;;;4140953;28;20218;-78
2022/05/30 09:38:41;;;;;;;6.83;2.43;;;14.40;99.90;;;;;;4160663;28;20203;-78
2022/05/30 09:40:45;;;;;;;4.97;2.10;;;14.50;99.90;;;;;;4161750;28;20206;-78
2022/05/30 09:42:55;;;;;;;8.37;1.90;;;14.60;99.90;;;;;;4137053;28;20244;-78
2022/05/30 09:45:07;;;;;;;5.23;2.20;;;14.70;99.90;;;;;;4140365;28;20231;-78
2022/05/30 09:47:16;;;;;;;5.33;2.30;;;14.70;99.90;;;;;;4160858;28;20213;-78
2022/05/30 09:49:20;;;;;;;5.30;2.00;;;14.80;99.90;;;;;;4159558;28;20216;-78
2022/05/30 09:51:31;;;;;;;6.70;2.03;;;14.90;99.90;;;;;;4158387;28;20217;-79
2022/05/30 09:53:49;;;;;;;10.50;2.90;;;14.90;99.90;;;;;;4158282;28;20201;-78
2022/05/30 09:55:54;;;;;;;6.13;2.10;;;15.00;99.90;;;;;;4139588;28;20229;-78
2022/05/30 09:57:58;;;;;;;5.77;2.10;;;15.20;99.90;;;;;;4140689;28;20312;-78
2022/05/30 10:00:10;;;;;;;6.17;1.87;;;15.40;99.80;;;;;;4160149;28;20727;-79
2022/05/30 10:02:22;;;;;;;5.87;1.50;;;15.50;96.90;;;;;;4157635;28;20212;-78
2022/05/30 10:04:38;;;;;;;6.73;1.70;;;15.70;94.80;;;;;;4143008;28;20217;-78
2022/05/30 10:06:43;;;;;;;5.57;1.50;;;15.90;92.50;;;;;;4160916;28;20714;-79
2022/05/30 10:08:48;;;;;;;5.77;1.90;;;16.00;90.50;;;;;;4161442;28;20207;-79
2022/05/30 10:10:51;;;;;;;3.77;1.53;;;15.90;88.50;;;;;;4156653;28;20947;-78
2022/05/30 10:12:56;;;;;;;5.37;1.70;;;15.90;87.50;;;;;;4158748;28;20207;-78
2022/05/30 10:14:58;;;;;;;4.07;1.50;;;15.90;80.70;;;;;;4158377;28;20241;-78
2022/05/30 10:17:11;;;;;;;4.13;1.60;;;15.90;79.80;;;;;;4159615;28;20518;-78
2022/05/30 10:19:26;;;;;;;2.07;1.40;;;15.90;79.90;;;;;;4161332;28;20291;-79
2022/05/30 10:21:39;;;;;;;5.43;1.77;;;15.90;76.40;;;;;;4140651;28;20320;-78
2022/05/30 10:28:51;;;;;;;7.53;1.60;;;16.20;75.80;;;;;;4158724;28;20199;-78
2022/05/30 10:31:02;;;;;;;4.63;1.90;;;16.30;74.00;;;;;;4157458;28;20217;-79
2022/05/30 10:33:12;;;;;;;6.53;1.67;;;16.30;73.20;;;;;;4159834;28;20213;-78
2022/05/30 10:35:21;;;;;;;5.77;1.70;;;16.30;74.60;;;;;;4142228;28;20321;-79
2022/05/30 10:37:45;;;;;;;5.43;1.70;;;16.40;76.60;;;;;;4156207;28;20704;-78
2022/05/30 10:40:12;;;;;;;4.90;1.67;;;16.50;78.70;;;;;;4141554;28;20200;-78
2022/05/30 10:42:19;;;;;;;4.33;1.43;;;16.70;78.60;;;;;;4173568;28;20214;-78
2022/05/30 10:44:23;;;;;;;5.47;2.23;;;16.90;76.50;;;;;;4160266;28;20211;-79
2022/05/30 10:46:35;;;;;;;6.63;2.07;;;17.00;75.00;;;;;;4160685;28;20213;-78
2022/05/30 10:48:39;;;;;;;2.43;1.40;;;17.20;69.90;;;;;;4138626;28;20211;-78
2022/05/30 10:50:54;;;;;;;4.13;1.50;;;17.30;68.20;;;;;;4130299;28;20216;-78
2022/05/30 10:53:03;;;;;;;6.03;1.97;;;17.40;66.80;;;;;;4160027;28;20295;-78
2022/05/30 10:55:11;;;;;;;5.60;1.70;;;17.50;61.60;;;;;;4149932;28;20305;-78
2022/05/30 10:57:20;;;;;;;7.17;2.63;;;17.50;60.50;;;;;;4141814;28;20211;-79
2022/05/30 10:59:29;;;;;;;8.40;1.77;;;17.60;58.60;;;;;;4158347;28;20302;-79
2022/05/30 11:01:42;;;;;;;5.03;2.03;;;17.70;59.10;;;;;;4141528;28;20443;-79
2022/05/30 11:03:48;;;;;;;7.13;1.80;;;17.80;57.60;;;;;;4158946;28;20241;-79
2022/05/30 11:05:56;;;;;;;5.33;1.53;;;17.80;57.50;;;;;;4160965;28;20232;-79
2022/05/30 11:08:06;;;;;;;3.97;1.97;;;17.80;54.30;;;;;;4142034;28;20219;-79